デトロイト/メトロポリタン の空港の天気 - METARとTAF

デトロイト・メトロポリタン・ウェイン・カウンティ空港 ( KDTW / DTW ) - アメリカ ミシガン州Romulus(デトロイト近郊)
飛行場実況気象(Metar)
観測時間09/18 17:53 EDT (09/18 21:53 UTC)
風向・風速東南東 4m/s
視程10km以上
天気現象
少しの雲 雲底高度 2130m
少しの雲 雲底高度 4570m
気温24.4℃
湿度52%
気圧1020.7hPa
METARKDTW 182153Z 11007KT 10SM FEW070 FEW150 24/14 A3015 RMK AO2 SLP207 T02440139
過去の天気等 Google飛行場航空写真 Wunderground天気予報

過去48時間のMETAR

飛行場予報(TAF)
発表時間: 9/18 17:01 EDT (9/18 21:01 UTC)
予報対象時間: 18日17時 EDT ~ 19日20時 EDT
風向・風速北東 4m/s
視程10km以上
少しの雲 雲底高度 1830m
全天の4割程度の雲 雲底高度 2740m
18日20時 EDT から
風向・風速北東 3m/s
視程10km以上
なし
19日10時 EDT から
風向・風速東 4m/s
視程10km以上
全天の4割程度の雲 雲底高度 6100m
KDTW 182101Z 1821/1924 05007KT P6SM FEW060 SCT090
FM190000 05005KT P6SM SKC
FM191400 10007KT P6SM SCT200